Time;durP1;ratioP1;P1;durP2;ratioP2;P2;SDS_P1;SDS_P2;PMS_P1;PMS_P2;Temp;Humidity;BMP_temperature;BMP_pressure;BME280_temperature;BME280_humidity;BME280_pressure;Samples;Min_cycle;Max_cycle;Signal;HPM_P1;HPM_P2
2022/04/28 00:01:49;;;;;;;9.40;8.27;;;8.60;99.90;;;;;;5030484;28;20207;-65
2022/04/28 00:04:15;;;;;;;8.77;7.87;;;8.60;99.90;;;;;;5030668;28;20723;-65
2022/04/28 00:06:40;;;;;;;10.27;8.10;;;8.50;99.90;;;;;;5031153;28;20171;-65
2022/04/28 00:09:06;;;;;;;9.83;8.83;;;8.50;99.90;;;;;;5031074;28;20711;-66
2022/04/28 00:11:33;;;;;;;9.40;8.47;;;8.50;99.90;;;;;;5030748;28;20184;-65
2022/04/28 00:13:59;;;;;;;14.70;9.67;;;8.40;99.90;;;;;;5030876;28;20721;-65
2022/04/28 00:16:26;;;;;;;10.03;8.90;;;8.40;99.90;;;;;;5030311;28;20191;-65
2022/04/28 00:18:51;;;;;;;10.07;9.07;;;8.30;99.90;;;;;;5030971;28;20530;-65
2022/04/28 00:21:17;;;;;;;10.30;8.90;;;8.30;99.90;;;;;;5030606;28;20259;-66
2022/04/28 00:23:43;;;;;;;10.13;9.27;;;8.20;99.90;;;;;;5030992;28;20215;-66
2022/04/28 00:26:08;;;;;;;10.33;9.33;;;8.20;99.90;;;;;;5030288;28;20180;-65
2022/04/28 00:28:34;;;;;;;12.73;10.13;;;8.20;99.90;;;;;;5030847;28;20175;-64
2022/04/28 00:31:00;;;;;;;13.03;8.87;;;8.10;99.90;;;;;;5030614;28;20171;-65
2022/04/28 00:33:27;;;;;;;9.47;8.57;;;8.10;99.90;;;;;;5030665;28;20575;-66
2022/04/28 00:35:55;;;;;;;9.90;8.93;;;8.10;99.90;;;;;;5031501;28;20168;-65
2022/04/28 00:38:21;;;;;;;11.97;8.40;;;8.00;99.90;;;;;;5034409;28;20167;-65
2022/04/28 00:40:47;;;;;;;13.50;8.80;;;8.00;99.90;;;;;;5034280;28;20187;-65
2022/04/28 00:43:19;;;;;;;13.77;8.90;;;7.90;99.90;;;;;;5034309;28;20206;-65
2022/04/28 00:45:48;;;;;;;10.17;9.17;;;7.90;99.90;;;;;;5033940;28;20172;-65
2022/04/28 00:51:01;;;;;;;13.07;9.57;;;7.90;99.90;;;;;;5033234;28;20191;-65
2022/04/28 00:53:30;;;;;;;10.63;9.53;;;7.90;99.90;;;;;;5014251;28;20661;-65
2022/04/28 00:55:59;;;;;;;13.90;9.70;;;7.90;99.90;;;;;;5014151;28;20172;-65
2022/04/28 00:58:25;;;;;;;9.47;8.60;;;7.80;99.90;;;;;;5030468;28;20190;-65
2022/04/28 01:00:53;;;;;;;11.23;8.57;;;7.80;99.90;;;;;;5034027;28;20270;-66
2022/04/28 01:03:19;;;;;;;9.67;8.77;;;7.80;99.90;;;;;;5033668;28;20210;-65
2022/04/28 01:05:45;;;;;;;10.87;9.57;;;7.70;99.90;;;;;;5033676;28;20170;-66
2022/04/28 01:08:10;;;;;;;12.40;9.27;;;7.70;99.90;;;;;;5033734;28;20171;-65
2022/04/28 01:10:36;;;;;;;9.93;9.00;;;7.70;99.90;;;;;;5033666;28;20559;-64
2022/04/28 01:13:03;;;;;;;14.70;9.53;;;7.70;99.90;;;;;;5033597;28;20218;-64
2022/04/28 01:15:28;;;;;;;9.87;8.77;;;7.60;99.90;;;;;;5033462;28;20190;-65
2022/04/28 01:17:54;;;;;;;11.20;9.63;;;7.60;99.90;;;;;;5033639;28;20667;-65
2022/04/28 01:20:20;;;;;;;11.03;9.80;;;7.60;99.90;;;;;;5033929;28;20175;-64
2022/04/28 01:22:45;;;;;;;11.47;9.77;;;7.60;99.90;;;;;;5033336;28;20710;-66
2022/04/28 01:25:11;;;;;;;11.17;9.37;;;7.50;99.90;;;;;;5033469;28;20194;-66
2022/04/28 01:27:38;;;;;;;10.67;9.63;;;7.50;99.90;;;;;;5033297;28;20237;-65
2022/04/28 01:30:14;;;;;;;11.40;9.97;;;7.50;99.90;;;;;;5033690;28;20254;-65
2022/04/28 01:32:40;;;;;;;10.63;9.53;;;7.50;99.90;;;;;;5033119;28;20182;-66
2022/04/28 01:35:06;;;;;;;13.70;10.20;;;7.40;99.90;;;;;;5033491;28;20198;-65
2022/04/28 01:37:31;;;;;;;11.00;9.90;;;7.40;99.90;;;;;;5033285;28;20183;-65
2022/04/28 01:39:57;;;;;;;10.97;9.83;;;7.40;99.90;;;;;;5033249;28;20640;-65
2022/04/28 01:42:23;;;;;;;13.33;10.07;;;7.40;99.90;;;;;;5033127;28;20198;-66
2022/04/28 01:44:50;;;;;;;11.90;9.50;;;7.40;99.90;;;;;;5032893;28;20183;-64
2022/04/28 01:47:16;;;;;;;13.13;11.30;;;7.30;99.90;;;;;;5032668;28;20167;-65
2022/04/28 01:49:42;;;;;;;14.47;10.83;;;7.30;99.90;;;;;;5033300;28;20182;-65
2022/04/28 01:54:58;;;;;;;12.03;10.73;;;7.30;99.90;;;;;;5032818;28;20198;-65
2022/04/28 01:57:29;;;;;;;12.23;10.63;;;7.30;99.90;;;;;;5013386;28;20705;-65
2022/04/28 01:59:56;;;;;;;11.80;10.57;;;7.20;99.90;;;;;;5013276;28;20285;-65
2022/04/28 02:02:22;;;;;;;17.80;11.00;;;7.20;99.90;;;;;;5032511;28;20195;-65
2022/04/28 02:04:48;;;;;;;12.33;11.07;;;7.20;99.90;;;;;;5040092;28;20191;-65
2022/04/28 02:07:14;;;;;;;15.70;11.13;;;7.20;99.90;;;;;;5046375;28;20255;-64
2022/04/28 02:09:41;;;;;;;12.73;10.77;;;7.20;99.90;;;;;;5045079;28;20187;-65
2022/04/28 02:12:07;;;;;;;12.67;11.23;;;7.10;99.90;;;;;;5044125;28;20172;-64
2022/04/28 02:14:33;;;;;;;13.03;11.73;;;7.10;99.90;;;;;;5037816;28;20961;-64
2022/04/28 02:16:58;;;;;;;13.63;11.77;;;7.10;99.90;;;;;;5035721;28;20190;-64
2022/04/28 02:19:24;;;;;;;15.43;12.10;;;7.10;99.90;;;;;;5033362;28;20195;-65
2022/04/28 02:21:50;;;;;;;14.47;11.67;;;7.10;99.90;;;;;;5033495;28;20613;-65
2022/04/28 02:24:16;;;;;;;13.03;11.20;;;7.10;99.90;;;;;;5032804;28;20554;-64
2022/04/28 02:26:41;;;;;;;13.60;12.17;;;7.10;99.90;;;;;;5032315;28;20183;-63
2022/04/28 02:29:07;;;;;;;14.57;12.70;;;7.10;99.90;;;;;;5033092;28;20626;-65
2022/04/28 02:31:33;;;;;;;14.20;11.80;;;7.10;99.90;;;;;;5032131;28;20214;-66
2022/04/28 02:33:58;;;;;;;14.40;11.60;;;7.10;99.90;;;;;;5032423;28;20257;-65
2022/04/28 02:36:24;;;;;;;13.63;11.40;;;7.00;99.90;;;;;;5031598;28;20547;-65
2022/04/28 02:38:51;;;;;;;12.57;11.27;;;7.00;99.90;;;;;;5014472;28;20703;-65
2022/04/28 02:41:20;;;;;;;14.23;12.53;;;7.00;99.90;;;;;;5032087;28;20254;-65
2022/04/28 02:43:50;;;;;;;14.00;11.90;;;7.00;99.90;;;;;;5032289;28;20249;-65
2022/04/28 02:46:17;;;;;;;17.77;12.97;;;7.00;99.90;;;;;;5031385;28;20176;-66
2022/04/28 02:48:42;;;;;;;14.87;13.13;;;7.00;99.90;;;;;;5032028;28;20168;-64
2022/04/28 02:51:08;;;;;;;13.30;12.00;;;7.00;99.90;;;;;;5031825;28;20179;-65
2022/04/28 02:53:34;;;;;;;16.13;13.00;;;7.00;99.90;;;;;;5031946;28;20703;-65
2022/04/28 02:56:00;;;;;;;15.53;13.27;;;7.00;99.90;;;;;;5031704;28;20171;-65
2022/04/28 02:58:25;;;;;;;16.07;12.67;;;7.00;99.90;;;;;;5031975;28;20171;-65
2022/04/28 03:00:51;;;;;;;14.60;12.97;;;6.90;99.90;;;;;;5031099;28;20175;-65
2022/04/28 03:03:17;;;;;;;16.30;13.07;;;6.90;99.90;;;;;;5013913;28;20218;-65
2022/04/28 03:11:11;;;;;;;13.93;12.53;;;6.80;99.90;;;;;;5031881;28;20234;-65
2022/04/28 03:13:38;;;;;;;16.10;13.07;;;6.80;99.90;;;;;;5031682;28;20612;-65
2022/04/28 03:16:04;;;;;;;13.10;11.80;;;6.80;99.90;;;;;;5031305;28;20179;-65
2022/04/28 03:18:30;;;;;;;14.90;13.33;;;6.80;99.90;;;;;;5031459;28;20251;-65
2022/04/28 03:20:56;;;;;;;20.27;12.60;;;6.70;99.90;;;;;;5031262;28;20182;-64
2022/04/28 03:23:22;;;;;;;16.90;13.50;;;6.70;99.90;;;;;;5031288;28;20211;-65
2022/04/28 03:25:51;;;;;;;16.57;12.87;;;6.70;99.90;;;;;;5031525;28;20171;-64
2022/04/28 03:28:19;;;;;;;14.53;12.53;;;6.60;99.90;;;;;;5031750;28;20178;-66
2022/04/28 03:30:46;;;;;;;16.03;14.33;;;6.60;99.90;;;;;;5031190;28;20184;-64
2022/04/28 03:33:12;;;;;;;19.70;14.43;;;6.60;99.90;;;;;;5055836;22;20204;-67
2022/04/28 03:35:38;;;;;;;15.00;13.17;;;6.60;99.90;;;;;;5032513;28;20215;-66
2022/04/28 03:38:04;;;;;;;16.67;13.40;;;6.50;99.90;;;;;;5032707;28;20168;-71
2022/04/28 03:40:30;;;;;;;20.87;14.03;;;6.50;99.90;;;;;;5032556;28;20187;-67
2022/04/28 03:42:57;;;;;;;16.27;14.57;;;6.40;99.90;;;;;;5032641;28;20705;-66
2022/04/28 03:45:24;;;;;;;16.60;14.10;;;6.40;99.90;;;;;;5032245;28;20225;-70
2022/04/28 03:47:50;;;;;;;18.17;14.73;;;6.40;99.90;;;;;;5032831;28;20222;-66
2022/04/28 03:50:16;;;;;;;20.37;15.07;;;6.30;99.90;;;;;;5032455;28;20180;-65
2022/04/28 03:52:42;;;;;;;17.73;14.70;;;6.30;99.90;;;;;;5032541;28;20175;-68
2022/04/28 03:55:09;;;;;;;20.20;14.77;;;6.20;99.90;;;;;;5031872;28;20198;-67
2022/04/28 03:57:36;;;;;;;16.83;14.60;;;6.30;99.90;;;;;;5032524;28;20656;-69
2022/04/28 04:00:06;;;;;;;14.93;13.43;;;6.20;99.90;;;;;;5032498;28;20175;-68
2022/04/28 04:02:32;;;;;;;21.23;15.03;;;6.20;99.90;;;;;;5032213;28;20203;-65
2022/04/28 04:04:58;;;;;;;17.87;14.37;;;6.10;99.90;;;;;;5030639;28;20213;-64
2022/04/28 04:07:29;;;;;;;21.13;14.83;;;6.10;99.90;;;;;;5030803;28;20695;-65
2022/04/28 04:09:54;;;;;;;20.73;15.27;;;6.00;99.90;;;;;;5030946;28;20175;-65
2022/04/28 04:12:20;;;;;;;20.83;15.43;;;6.00;99.90;;;;;;5034538;28;20545;-65
2022/04/28 04:14:45;;;;;;;18.27;14.37;;;6.00;99.90;;;;;;5034511;28;20710;-65
2022/04/28 04:17:11;;;;;;;22.60;16.17;;;6.00;99.90;;;;;;5035037;28;20171;-64
2022/04/28 04:19:37;;;;;;;18.23;15.90;;;6.00;99.90;;;;;;5034820;28;20588;-64
2022/04/28 04:22:03;;;;;;;20.70;15.80;;;5.90;99.90;;;;;;5034924;28;20206;-64
2022/04/28 04:24:30;;;;;;;18.77;15.27;;;5.90;99.90;;;;;;5034164;28;20365;-64
2022/04/28 04:26:57;;;;;;;21.10;15.97;;;5.90;99.90;;;;;;5034782;28;20250;-64
2022/04/28 04:29:22;;;;;;;22.47;15.97;;;5.90;99.90;;;;;;5034576;28;20218;-65
2022/04/28 04:34:32;;;;;;;23.63;16.63;;;5.90;99.90;;;;;;5034130;28;20269;-64
2022/04/28 04:36:57;;;;;;;19.43;16.80;;;6.00;99.90;;;;;;5034316;28;20164;-64
2022/04/28 04:39:23;;;;;;;20.10;16.30;;;6.00;99.90;;;;;;5034609;28;20172;-64
2022/04/28 04:41:49;;;;;;;25.23;18.13;;;6.00;99.90;;;;;;5034255;28;20172;-64
2022/04/28 04:44:14;;;;;;;20.37;16.87;;;6.10;99.90;;;;;;5031085;28;20759;-64
2022/04/28 04:46:41;;;;;;;27.07;18.30;;;6.20;99.90;;;;;;5034214;28;20167;-65
2022/04/28 04:49:07;;;;;;;20.73;17.40;;;6.30;99.90;;;;;;5034342;28;20520;-65
2022/04/28 04:51:33;;;;;;;22.70;18.20;;;6.40;99.90;;;;;;5034271;28;20179;-65
2022/04/28 04:53:58;;;;;;;20.70;17.03;;;6.50;99.90;;;;;;5033905;28;20203;-65
2022/04/28 04:56:24;;;;;;;21.43;17.07;;;6.60;99.90;;;;;;5013998;28;20191;-65
2022/04/28 04:58:50;;;;;;;23.53;16.30;;;6.60;99.90;;;;;;5027973;28;20516;-64
2022/04/28 05:01:15;;;;;;;23.53;17.53;;;6.70;99.90;;;;;;5033980;28;20183;-65
2022/04/28 05:03:41;;;;;;;18.93;16.93;;;6.80;99.90;;;;;;5033730;28;20679;-65
2022/04/28 05:06:07;;;;;;;21.03;16.47;;;6.90;99.90;;;;;;5033908;28;20263;-65
2022/04/28 05:08:33;;;;;;;23.23;17.20;;;6.90;99.90;;;;;;5033632;28;20191;-65
2022/04/28 05:10:58;;;;;;;23.33;16.43;;;7.00;99.90;;;;;;5034155;28;20176;-65
2022/04/28 05:13:24;;;;;;;20.40;16.10;;;7.10;99.90;;;;;;5033566;28;20195;-64
2022/04/28 05:15:50;;;;;;;21.80;16.53;;;7.10;99.90;;;;;;5033717;28;20176;-65
2022/04/28 05:18:15;;;;;;;22.40;15.60;;;7.20;99.90;;;;;;5033506;28;20656;-64
2022/04/28 05:20:41;;;;;;;21.43;15.90;;;7.20;99.90;;;;;;5033758;28;20579;-65
2022/04/28 05:23:06;;;;;;;29.07;18.17;;;7.30;99.90;;;;;;5032858;28;20200;-65
2022/04/28 05:25:33;;;;;;;25.03;16.73;;;7.40;99.90;;;;;;5033450;28;20174;-64
2022/04/28 05:27:59;;;;;;;19.77;16.13;;;7.50;99.90;;;;;;5033544;28;20186;-65
2022/04/28 05:30:25;;;;;;;21.70;16.73;;;7.70;99.90;;;;;;5033682;28;20258;-65
2022/04/28 05:32:50;;;;;;;24.30;19.10;;;7.80;99.90;;;;;;5033494;28;20171;-64
2022/04/28 05:35:16;;;;;;;19.50;16.60;;;7.90;99.90;;;;;;5032704;28;20231;-65
2022/04/28 05:37:42;;;;;;;23.20;17.57;;;8.00;99.90;;;;;;5033422;28;20499;-65
2022/04/28 05:40:08;;;;;;;19.43;15.47;;;8.10;99.90;;;;;;5033295;28;20171;-64
2022/04/28 05:48:04;;;;;;;17.67;14.43;;;8.50;99.90;;;;;;5033751;28;20552;-64
2022/04/28 05:50:29;;;;;;;18.17;15.60;;;8.60;99.90;;;;;;5032730;28;20163;-65
2022/04/28 05:52:55;;;;;;;20.43;13.83;;;8.90;99.90;;;;;;5032927;28;20690;-64
2022/04/28 05:55:21;;;;;;;18.23;15.03;;;9.00;99.90;;;;;;5032588;28;20266;-65
2022/04/28 05:57:46;;;;;;;19.80;14.73;;;9.20;99.90;;;;;;5026564;28;20179;-65
2022/04/28 06:00:12;;;;;;;18.23;14.47;;;9.40;99.90;;;;;;5033079;28;20585;-64
2022/04/28 06:02:38;;;;;;;19.13;13.27;;;9.80;99.90;;;;;;5032550;28;20620;-65
2022/04/28 06:05:04;;;;;;;17.23;12.90;;;10.00;99.90;;;;;;5032533;28;20226;-65
2022/04/28 06:07:30;;;;;;;16.27;12.67;;;10.30;99.90;;;;;;5032635;28;20167;-65
2022/04/28 06:09:56;;;;;;;17.87;13.47;;;10.60;99.90;;;;;;5032767;28;20598;-65
2022/04/28 06:12:24;;;;;;;17.40;12.70;;;11.00;99.90;;;;;;5030865;28;20187;-65
2022/04/28 06:14:50;;;;;;;17.53;12.53;;;11.40;99.90;;;;;;5031512;28;20191;-64
2022/04/28 06:17:15;;;;;;;15.70;13.07;;;11.70;99.90;;;;;;5032494;28;20190;-64
2022/04/28 06:19:41;;;;;;;19.47;12.80;;;12.00;99.90;;;;;;5032325;28;20245;-65
2022/04/28 06:22:06;;;;;;;13.97;12.20;;;12.30;99.90;;;;;;5032514;28;20570;-65
2022/04/28 06:24:38;;;;;;;15.90;13.33;;;12.80;99.90;;;;;;5030064;28;20715;-65
2022/04/28 06:27:04;;;;;;;15.93;12.80;;;13.20;99.90;;;;;;5032445;28;20180;-65
2022/04/28 06:29:30;;;;;;;14.83;13.07;;;13.40;99.90;;;;;;5032062;28;20179;-65
2022/04/28 06:31:55;;;;;;;15.87;12.90;;;13.80;99.90;;;;;;5032469;28;20214;-64
2022/04/28 06:34:21;;;;;;;17.97;13.37;;;14.10;99.90;;;;;;5031505;28;20207;-64
2022/04/28 06:36:46;;;;;;;20.27;13.70;;;14.40;99.90;;;;;;5031939;28;20706;-65
2022/04/28 06:39:13;;;;;;;13.73;12.00;;;14.50;99.90;;;;;;5032092;28;20191;-65
2022/04/28 06:41:39;;;;;;;19.80;13.83;;;14.60;99.90;;;;;;5031418;28;20224;-65
2022/04/28 06:44:04;;;;;;;14.93;12.67;;;14.70;99.90;;;;;;5031768;28;20234;-65
2022/04/28 06:46:30;;;;;;;14.17;11.87;;;15.00;99.90;;;;;;5031305;28;20497;-65
2022/04/28 06:48:56;;;;;;;16.80;12.63;;;15.40;99.90;;;;;;5032041;28;20366;-65
2022/04/28 06:51:22;;;;;;;17.90;13.07;;;15.60;99.90;;;;;;5031608;28;20262;-65
2022/04/28 06:54:00;;;;;;;14.93;11.90;;;16.00;99.90;;;;;;5031852;28;20341;-65
2022/04/28 06:56:25;;;;;;;16.47;12.87;;;16.10;99.90;;;;;;5031173;28;20179;-65
2022/04/28 06:58:51;;;;;;;16.67;12.90;;;16.30;99.90;;;;;;5031822;28;20209;-65
2022/04/28 07:01:16;;;;;;;15.60;12.80;;;16.40;99.90;;;;;;5031421;28;20270;-65
2022/04/28 07:03:42;;;;;;;15.43;13.13;;;16.60;99.90;;;;;;5031330;28;20211;-65
2022/04/28 07:06:08;;;;;;;15.07;12.73;;;17.00;99.90;;;;;;5031195;28;20183;-65
2022/04/28 07:08:33;;;;;;;14.33;12.83;;;17.10;99.90;;;;;;5031735;28;20183;-65
2022/04/28 07:10:59;;;;;;;16.90;12.70;;;17.30;99.90;;;;;;5031561;28;20174;-65
2022/04/28 07:13:25;;;;;;;14.83;13.27;;;17.50;99.90;;;;;;5031499;28;20415;-65
2022/04/28 07:15:50;;;;;;;13.93;12.50;;;17.70;99.90;;;;;;5031102;28;20183;-65
2022/04/28 07:18:16;;;;;;;16.50;13.07;;;17.90;99.90;;;;;;5031555;28;20184;-65
2022/04/28 07:20:44;;;;;;;18.70;14.20;;;18.00;99.90;;;;;;5031373;28;20583;-63
2022/04/28 07:23:10;;;;;;;17.93;13.73;;;18.10;99.90;;;;;;5031252;28;20338;-65
2022/04/28 07:25:36;;;;;;;16.33;13.63;;;18.60;99.90;;;;;;5030995;28;20179;-65
2022/04/28 07:28:02;;;;;;;14.73;13.20;;;18.80;99.90;;;;;;5031148;28;20221;-65
2022/04/28 07:30:28;;;;;;;16.87;13.57;;;18.90;99.90;;;;;;5031222;28;20175;-63
2022/04/28 07:32:53;;;;;;;14.30;12.80;;;19.20;99.90;;;;;;5030682;28;20231;-63
2022/04/28 07:35:21;;;;;;;16.97;13.27;;;19.60;99.90;;;;;;5030643;28;20187;-62
2022/04/28 07:37:47;;;;;;;14.73;12.90;;;19.90;99.90;;;;;;5031212;28;20699;-65
2022/04/28 07:40:13;;;;;;;14.63;12.93;;;19.70;99.90;;;;;;5030970;28;20191;-63
2022/04/28 07:42:38;;;;;;;17.05;12.98;;;19.90;99.90;;;;;;5030932;28;20664;-63
2022/04/28 07:45:04;;;;;;;17.80;13.55;;;20.20;99.90;;;;;;5030249;28;20202;-63
2022/04/28 07:47:31;;;;;;;17.77;14.40;;;20.40;99.90;;;;;;5029322;28;20182;-62
2022/04/28 07:49:57;;;;;;;18.45;13.30;;;20.10;99.90;;;;;;5030986;28;20164;-62
2022/04/28 07:52:23;;;;;;;16.42;12.93;;;20.10;99.90;;;;;;5030236;28;20182;-65
2022/04/28 07:54:49;;;;;;;15.18;12.95;;;20.50;99.90;;;;;;5030848;28;20199;-62
2022/04/28 07:57:15;;;;;;;19.45;13.20;;;20.90;99.90;;;;;;5031058;28;20552;-65
2022/04/28 07:59:41;;;;;;;17.38;14.10;;;21.00;99.90;;;;;;5030954;28;20652;-62
2022/04/28 08:02:11;;;;;;;18.58;13.18;;;20.90;99.90;;;;;;5030978;28;20571;-63
2022/04/28 08:04:37;;;;;;;21.20;13.77;;;20.60;99.90;;;;;;5030301;28;20575;-63
2022/04/28 08:07:03;;;;;;;17.65;13.35;;;20.60;99.90;;;;;;5030898;28;20178;-63
2022/04/28 08:09:29;;;;;;;15.93;13.50;;;21.00;99.90;;;;;;5030557;28;20180;-62
2022/04/28 08:11:55;;;;;;;15.88;12.75;;;21.40;99.90;;;;;;5030915;28;20175;-63
2022/04/28 08:14:23;;;;;;;16.02;13.70;;;21.50;99.90;;;;;;5029967;28;20237;-63
2022/04/28 08:16:50;;;;;;;14.77;13.25;;;21.70;99.90;;;;;;5030255;28;20167;-62
2022/04/28 08:19:15;;;;;;;14.27;12.35;;;21.60;99.90;;;;;;5030398;28;20176;-62
2022/04/28 08:21:41;;;;;;;14.25;12.73;;;21.70;99.90;;;;;;5017060;28;20202;-63
2022/04/28 08:24:07;;;;;;;16.83;13.07;;;21.40;99.90;;;;;;5012324;28;20216;-63
2022/04/28 08:26:32;;;;;;;16.15;13.32;;;21.70;99.90;;;;;;5009108;28;20180;-63
2022/04/28 08:28:58;;;;;;;17.02;12.60;;;21.60;99.90;;;;;;5011069;28;20173;-63
2022/04/28 08:31:24;;;;;;;16.40;12.57;;;21.60;99.90;;;;;;5010350;28;20172;-63
2022/04/28 08:33:49;;;;;;;16.73;12.75;;;21.90;99.90;;;;;;5010566;28;20302;-63
2022/04/28 08:36:15;;;;;;;14.77;13.27;;;22.20;99.90;;;;;;5010468;28;20310;-63
2022/04/28 08:38:42;;;;;;;16.52;13.15;;;22.50;99.90;;;;;;5010592;28;20165;-62
2022/04/28 08:41:10;;;;;;;16.60;13.38;;;22.80;99.90;;;;;;5009387;28;20263;-63
2022/04/28 08:43:37;;;;;;;20.08;12.68;;;23.20;99.90;;;;;;5010696;28;20531;-62
2022/04/28 08:48:53;;;;;;;16.27;13.30;;;22.60;99.90;;;;;;5010953;28;20205;-63
2022/04/28 08:51:20;;;;;;;18.15;13.55;;;22.10;99.90;;;;;;5012486;28;20328;-62
2022/04/28 08:53:49;;;;;;;13.95;12.55;;;22.20;99.90;;;;;;5030229;28;20218;-63
2022/04/28 08:56:15;;;;;;;13.50;12.20;;;22.10;99.90;;;;;;5030076;28;20204;-63
2022/04/28 08:58:41;;;;;;;16.27;13.07;;;22.20;99.90;;;;;;5032409;28;20255;-63
2022/04/28 09:01:07;;;;;;;14.88;12.63;;;22.30;99.90;;;;;;5033894;28;20597;-62
2022/04/28 09:03:32;;;;;;;15.10;12.45;;;22.40;99.90;;;;;;5033570;28;20207;-62
2022/04/28 09:06:25;;;;;;;18.45;12.40;;;22.40;99.90;;;;;;5033561;28;20588;-64
2022/04/28 09:08:51;;;;;;;14.73;12.00;;;22.30;99.90;;;;;;5033693;28;20608;-63
2022/04/28 09:11:23;;;;;;;14.20;12.70;;;22.50;99.90;;;;;;5033728;28;20533;-62
2022/04/28 09:14:15;;;;;;;14.57;12.43;;;22.70;99.90;;;;;;5033682;28;20279;-63
2022/04/28 09:16:49;;;;;;;16.33;12.98;;;22.60;99.90;;;;;;5032648;28;20192;-63
2022/04/28 09:19:19;;;;;;;14.70;12.45;;;22.40;99.90;;;;;;5033334;28;20827;-64
2022/04/28 09:21:46;;;;;;;14.07;12.55;;;22.30;99.90;;;;;;5033259;28;20191;-63
2022/04/28 09:24:13;;;;;;;15.35;13.35;;;22.30;99.90;;;;;;5020357;28;20227;-63
2022/04/28 09:26:39;;;;;;;15.18;13.25;;;22.30;99.90;;;;;;5026838;28;20242;-62
2022/04/28 09:29:09;;;;;;;13.27;11.70;;;22.30;99.90;;;;;;5033324;28;20175;-63
2022/04/28 09:31:37;;;;;;;14.57;12.35;;;22.30;99.90;;;;;;5032993;28;20198;-63
2022/04/28 09:36:31;;;;;;;15.32;11.98;;;22.10;99.90;;;;;;5051242;28;20214;-65
2022/04/28 09:38:56;;;;;;;15.55;12.13;;;22.00;99.90;;;;;;5053281;28;20204;-65
2022/04/28 09:44:06;;;;;;;12.27;10.77;;;21.70;99.90;;;;;;5053246;28;20583;-66
2022/04/28 09:46:39;;;;;;;13.93;12.13;;;21.70;99.90;;;;;;5052204;28;20171;-66
2022/04/28 09:49:05;;;;;;;13.73;11.65;;;22.20;99.90;;;;;;5053727;28;20175;-65
2022/04/28 09:51:31;;;;;;;12.20;10.95;;;22.40;99.90;;;;;;5052788;28;20185;-65
2022/04/28 09:54:02;;;;;;;15.18;11.57;;;22.70;99.90;;;;;;5053064;28;20596;-65
2022/04/28 09:56:34;;;;;;;12.57;11.35;;;22.80;99.90;;;;;;5052380;28;20256;-66
2022/04/28 09:59:00;;;;;;;14.13;11.13;;;22.80;99.90;;;;;;5053014;28;20171;-66
2022/04/28 10:01:28;;;;;;;11.73;10.32;;;22.60;99.90;;;;;;5052681;28;20186;-66
2022/04/28 10:03:54;;;;;;;14.40;11.02;;;22.60;99.90;;;;;;5052695;28;20210;-65
2022/04/28 10:06:21;;;;;;;14.13;12.02;;;22.50;99.90;;;;;;5052585;28;20180;-65
2022/04/28 10:08:47;;;;;;;12.63;11.32;;;22.50;99.90;;;;;;5052319;28;20178;-66
2022/04/28 10:11:19;;;;;;;11.65;10.45;;;23.00;99.90;;;;;;5052936;28;20167;-66
2022/04/28 10:13:46;;;;;;;12.80;10.63;;;23.60;99.90;;;;;;5051979;28;20194;-66
2022/04/28 10:16:14;;;;;;;12.70;11.43;;;23.10;99.50;;;;;;5052467;28;20258;-66
2022/04/28 10:19:02;;;;;;;11.82;10.27;;;23.00;99.90;;;;;;5051063;28;20186;-67
2022/04/28 10:21:37;;;;;;;15.25;10.85;;;23.20;99.90;;;;;;5032567;28;20183;-66
2022/04/28 10:32:53;;;;;;;11.32;10.13;;;23.40;97.90;;;;;;5052464;28;20226;-66
2022/04/28 10:35:31;;;;;;;12.65;10.82;;;23.20;98.20;;;;;;5051745;28;20260;-66
2022/04/28 10:38:30;;;;;;;13.43;11.32;;;23.00;97.10;;;;;;5052151;28;20194;-66
2022/04/28 10:41:01;;;;;;;12.10;10.85;;;23.10;99.10;;;;;;5045224;28;20214;-66
2022/04/28 10:43:32;;;;;;;10.93;9.88;;;23.10;97.80;;;;;;5050210;28;20202;-67
2022/04/28 10:46:08;;;;;;;14.05;11.55;;;23.30;99.20;;;;;;5052001;28;20166;-66
2022/04/28 10:48:44;;;;;;;13.45;11.40;;;23.50;98.80;;;;;;5051885;28;20174;-66
2022/04/28 10:51:26;;;;;;;14.85;12.45;;;23.70;97.20;;;;;;5052366;28;20167;-66
2022/04/28 10:54:19;;;;;;;12.75;11.38;;;23.60;97.40;;;;;;5030914;28;20199;-66
2022/04/28 10:56:50;;;;;;;13.23;11.00;;;23.60;97.50;;;;;;5034873;28;20173;-66
2022/04/28 10:59:37;;;;;;;12.93;10.75;;;24.00;97.20;;;;;;5051947;28;20261;-66
2022/04/28 11:02:13;;;;;;;12.52;11.18;;;24.10;97.10;;;;;;5051552;28;20175;-66
2022/04/28 11:04:40;;;;;;;12.68;11.43;;;24.10;99.30;;;;;;5051344;28;20565;-66
2022/04/28 11:07:08;;;;;;;13.60;10.75;;;24.20;96.60;;;;;;5050400;28;20190;-66
2022/04/28 11:09:43;;;;;;;12.50;11.20;;;24.50;99.80;;;;;;5051688;28;20691;-66
2022/04/28 11:12:11;;;;;;;13.35;11.63;;;24.70;98.90;;;;;;5048463;28;20175;-66
2022/04/28 11:14:48;;;;;;;11.60;10.30;;;24.80;97.50;;;;;;5051178;28;20183;-66
2022/04/28 11:17:16;;;;;;;13.25;10.40;;;24.30;96.10;;;;;;5051322;28;20540;-66
2022/04/28 11:19:43;;;;;;;15.55;10.80;;;24.40;99.90;;;;;;5051262;28;20297;-66
2022/04/28 11:22:11;;;;;;;11.07;9.82;;;25.00;96.60;;;;;;5050756;28;20250;-65
2022/04/28 11:24:40;;;;;;;12.27;10.27;;;24.70;95.30;;;;;;5051166;28;20198;-66
2022/04/28 11:27:07;;;;;;;13.77;11.10;;;24.20;96.00;;;;;;5051205;28;20229;-65
2022/04/28 11:29:32;;;;;;;14.90;11.43;;;24.00;96.20;;;;;;5050013;28;20179;-66
2022/04/28 11:32:00;;;;;;;12.90;10.82;;;23.70;96.60;;;;;;5051273;28;20181;-65
2022/04/28 11:34:29;;;;;;;12.57;11.13;;;23.80;96.10;;;;;;5050980;28;20221;-66
2022/04/28 11:36:55;;;;;;;12.45;10.90;;;23.70;95.90;;;;;;5051027;28;20175;-65
2022/04/28 11:39:24;;;;;;;12.70;11.13;;;24.00;95.50;;;;;;5051129;28;20225;-66
2022/04/28 11:41:52;;;;;;;13.30;11.52;;;24.20;95.30;;;;;;5050978;28;20631;-66
2022/04/28 11:44:19;;;;;;;16.40;11.90;;;23.80;95.50;;;;;;5051114;28;20278;-65
2022/04/28 11:46:44;;;;;;;14.82;11.43;;;23.70;94.90;;;;;;5050551;28;20299;-66
2022/04/28 11:49:11;;;;;;;12.90;10.90;;;23.60;95.60;;;;;;5051212;28;20181;-66
2022/04/28 11:51:37;;;;;;;12.30;10.90;;;23.50;96.00;;;;;;5049564;28;20557;-66
2022/04/28 11:54:04;;;;;;;14.75;11.50;;;23.50;96.20;;;;;;5049833;28;20286;-66
2022/04/28 11:56:33;;;;;;;15.40;10.73;;;23.40;96.10;;;;;;5049171;28;20183;-66
2022/04/28 11:59:02;;;;;;;13.80;11.43;;;23.30;94.90;;;;;;5051207;28;20262;-66
2022/04/28 12:01:32;;;;;;;12.70;11.40;;;23.30;96.60;;;;;;5050693;28;20224;-65
2022/04/28 12:03:59;;;;;;;14.10;10.73;;;23.50;96.10;;;;;;5050869;28;20209;-66
2022/04/28 12:06:25;;;;;;;14.23;11.05;;;23.60;97.20;;;;;;5050245;28;20182;-66
2022/04/28 12:08:53;;;;;;;14.30;11.77;;;23.90;98.50;;;;;;5049650;28;20328;-66
2022/04/28 12:14:25;;;;;;;13.95;11.25;;;23.30;99.70;;;;;;5051005;28;20578;-66
2022/04/28 12:20:04;;;;;;;18.98;12.15;;;23.50;96.50;;;;;;5050828;28;20256;-66
2022/04/28 12:22:39;;;;;;;13.52;10.98;;;23.40;96.50;;;;;;5030801;28;20249;-66
2022/04/28 12:25:11;;;;;;;14.18;12.10;;;23.10;95.10;;;;;;5038430;28;20301;-66
2022/04/28 12:27:53;;;;;;;21.10;11.75;;;23.00;94.80;;;;;;5048830;28;20216;-66
2022/04/28 12:30:20;;;;;;;12.13;9.93;;;23.00;97.20;;;;;;5051111;28;20175;-66
2022/04/28 12:32:50;;;;;;;13.05;10.43;;;23.00;94.40;;;;;;5053333;28;20240;-65
2022/04/28 12:35:26;;;;;;;13.05;11.48;;;22.70;96.40;;;;;;5053504;28;20579;-65
2022/04/28 12:37:57;;;;;;;11.52;10.30;;;22.80;93.30;;;;;;5054492;28;20175;-66
2022/04/28 12:40:24;;;;;;;13.25;10.45;;;23.00;95.80;;;;;;5054268;28;20171;-66
2022/04/28 12:42:50;;;;;;;12.35;10.55;;;23.50;96.20;;;;;;5053918;28;20194;-65
2022/04/28 12:45:43;;;;;;;12.70;10.18;;;23.60;93.30;;;;;;5053006;28;20197;-65
2022/04/28 12:48:30;;;;;;;12.23;10.90;;;23.50;94.90;;;;;;5054352;28;20529;-65
2022/04/28 12:51:11;;;;;;;15.82;11.02;;;23.40;93.10;;;;;;5054287;28;20581;-65
2022/04/28 12:53:38;;;;;;;13.38;10.10;;;23.50;94.90;;;;;;5049690;28;20202;-66
2022/04/28 12:56:08;;;;;;;13.60;10.80;;;23.50;93.40;;;;;;5060721;28;20178;-65
2022/04/28 12:58:42;;;;;;;15.20;11.30;;;23.70;96.50;;;;;;5069525;28;20181;-65
2022/04/28 13:01:19;;;;;;;14.45;10.80;;;23.60;95.30;;;;;;5072995;28;20173;-65
2022/04/28 13:04:12;;;;;;;10.98;9.85;;;23.40;94.50;;;;;;5057963;28;20267;-65
2022/04/28 13:06:43;;;;;;;13.18;10.75;;;23.20;94.50;;;;;;5051067;28;20214;-65
2022/04/28 13:09:09;;;;;;;17.05;10.68;;;23.20;94.30;;;;;;5054195;28;20166;-64
2022/04/28 13:11:38;;;;;;;12.55;9.77;;;23.10;94.50;;;;;;5053606;28;20219;-64
2022/04/28 13:14:05;;;;;;;13.65;10.43;;;22.90;95.40;;;;;;5052686;28;20199;-66
2022/04/28 13:16:31;;;;;;;14.15;9.30;;;22.80;94.90;;;;;;5053190;28;20260;-65
2022/04/28 13:18:57;;;;;;;12.10;9.10;;;22.90;94.60;;;;;;5052609;28;20217;-66